createdAt,value
2023-10-26T00:00:14.216Z,968.72
2023-10-26T00:01:14.222Z,968.74
2023-10-26T00:02:15.253Z,968.73
2023-10-26T00:03:14.347Z,968.69
2023-10-26T00:04:14.357Z,968.75
2023-10-26T00:05:14.186Z,968.70
2023-10-26T00:06:14.222Z,968.69
2023-10-26T00:07:14.153Z,968.71
2023-10-26T00:08:14.153Z,968.72
2023-10-26T00:09:14.189Z,968.71
2023-10-26T00:10:14.153Z,968.76
2023-10-26T00:11:14.104Z,968.74
2023-10-26T00:12:14.237Z,968.76
2023-10-26T00:13:14.099Z,968.72
2023-10-26T00:14:14.113Z,968.73
2023-10-26T00:15:14.143Z,968.79
2023-10-26T00:16:14.105Z,968.79
2023-10-26T00:17:14.157Z,968.75
2023-10-26T00:18:14.166Z,968.75
2023-10-26T00:19:14.089Z,968.81
2023-10-26T00:20:14.102Z,968.79
2023-10-26T00:21:14.110Z,968.79
2023-10-26T00:22:14.130Z,968.77
2023-10-26T00:23:14.121Z,968.83
2023-10-26T00:24:14.090Z,968.80
2023-10-26T00:25:15.047Z,968.81
2023-10-26T00:26:14.031Z,968.81
2023-10-26T00:27:14.033Z,968.81
2023-10-26T00:28:14.063Z,968.83
2023-10-26T00:29:14.020Z,968.79
2023-10-26T00:30:14.061Z,968.82
2023-10-26T00:31:14.027Z,968.84
2023-10-26T00:32:14.081Z,968.83
2023-10-26T00:33:14.019Z,968.81
2023-10-26T00:34:14.034Z,968.87
2023-10-26T00:35:13.970Z,968.86
2023-10-26T00:36:14.107Z,968.84
2023-10-26T00:37:14.043Z,968.91
2023-10-26T00:38:14.004Z,968.94
2023-10-26T00:39:14.043Z,968.91
2023-10-26T00:40:13.968Z,968.94
2023-10-26T00:41:13.968Z,968.95
2023-10-26T00:42:13.941Z,968.96
2023-10-26T00:43:13.929Z,968.96
2023-10-26T00:44:13.940Z,969.01
2023-10-26T00:45:13.961Z,968.95
2023-10-26T00:46:13.901Z,968.97
2023-10-26T00:47:13.961Z,968.98
2023-10-26T00:48:13.994Z,968.95
2023-10-26T00:49:13.958Z,969.01
2023-10-26T00:50:13.905Z,969.00
2023-10-26T00:51:13.897Z,969.01
2023-10-26T00:52:13.866Z,968.99
2023-10-26T00:53:13.877Z,968.95
2023-10-26T00:54:13.896Z,968.94
2023-10-26T00:55:13.890Z,968.90
2023-10-26T00:56:13.889Z,968.92
2023-10-26T00:57:13.886Z,968.92
2023-10-26T00:58:13.876Z,969.00
2023-10-26T00:59:13.862Z,968.97
2023-10-26T01:00:13.901Z,968.92
2023-10-26T01:01:13.822Z,968.95
2023-10-26T01:02:13.842Z,969.01
2023-10-26T01:03:13.866Z,968.98
2023-10-26T01:04:13.846Z,968.93
2023-10-26T01:05:13.858Z,968.92
2023-10-26T01:06:13.863Z,968.99
2023-10-26T01:07:13.808Z,969.07
2023-10-26T01:08:13.831Z,969.00
2023-10-26T01:09:13.840Z,969.03
2023-10-26T01:10:13.829Z,969.03
2023-10-26T01:11:13.792Z,969.04
2023-10-26T01:12:13.877Z,969.07
2023-10-26T01:13:13.826Z,969.04
2023-10-26T01:14:13.773Z,969.06
2023-10-26T01:15:13.863Z,969.08
2023-10-26T01:16:13.785Z,969.10
2023-10-26T01:17:13.761Z,969.02
2023-10-26T01:18:13.813Z,969.09
2023-10-26T01:19:13.757Z,969.06
2023-10-26T01:20:13.794Z,969.10
2023-10-26T01:21:13.866Z,969.10
2023-10-26T01:22:13.778Z,969.10
2023-10-26T01:23:13.718Z,969.10
2023-10-26T01:24:13.806Z,969.10
2023-10-26T01:25:13.817Z,969.07
2023-10-26T01:26:13.788Z,969.13
2023-10-26T01:27:13.728Z,969.21
2023-10-26T01:28:13.728Z,969.12
2023-10-26T01:29:13.697Z,969.23
2023-10-26T01:30:13.754Z,969.27
2023-10-26T01:31:13.705Z,969.28
2023-10-26T01:32:13.674Z,969.27
2023-10-26T01:33:13.852Z,969.28
2023-10-26T01:34:13.707Z,969.25
2023-10-26T01:35:13.727Z,969.27
2023-10-26T01:36:13.750Z,969.30
2023-10-26T01:37:13.671Z,969.30
2023-10-26T01:38:13.665Z,969.36
2023-10-26T01:39:13.680Z,969.29
2023-10-26T01:40:13.650Z,969.25
2023-10-26T01:41:13.663Z,969.27
2023-10-26T01:42:13.737Z,969.32
2023-10-26T01:43:13.632Z,969.22
2023-10-26T01:44:14.641Z,969.35
2023-10-26T01:45:13.732Z,969.38
2023-10-26T01:46:13.664Z,969.31
2023-10-26T01:47:13.628Z,969.26
2023-10-26T01:48:13.717Z,969.37
2023-10-26T01:49:13.615Z,969.29
2023-10-26T01:50:13.643Z,969.26
2023-10-26T01:51:13.658Z,969.28
2023-10-26T01:52:13.598Z,969.27
2023-10-26T01:53:13.625Z,969.37
2023-10-26T01:54:13.620Z,969.32
2023-10-26T01:55:13.605Z,969.36
2023-10-26T01:56:13.608Z,969.31
2023-10-26T01:57:13.594Z,969.32
2023-10-26T01:58:13.581Z,969.34
2023-10-26T01:59:13.550Z,969.32
2023-10-26T02:00:13.662Z,969.26
2023-10-26T02:01:13.570Z,969.35
2023-10-26T02:02:13.552Z,969.34
2023-10-26T02:03:13.663Z,969.28
2023-10-26T02:04:13.547Z,969.34
2023-10-26T02:05:13.600Z,969.34
2023-10-26T02:06:13.589Z,969.34
2023-10-26T02:07:13.541Z,969.31
2023-10-26T02:08:13.515Z,969.33
2023-10-26T02:09:13.559Z,969.42
2023-10-26T02:10:13.501Z,969.38
2023-10-26T02:11:13.494Z,969.38
2023-10-26T02:12:13.552Z,969.38
2023-10-26T02:13:13.480Z,969.29
2023-10-26T02:14:13.481Z,969.37
2023-10-26T02:15:13.516Z,969.40
2023-10-26T02:16:13.574Z,969.33
2023-10-26T02:17:13.443Z,969.34
2023-10-26T02:18:14.412Z,969.36
2023-10-26T02:19:13.506Z,969.37
2023-10-26T02:20:13.486Z,969.46
2023-10-26T02:21:13.529Z,969.31
2023-10-26T02:22:13.439Z,969.45
2023-10-26T02:23:13.463Z,969.45
2023-10-26T02:24:13.431Z,969.48
2023-10-26T02:25:13.402Z,969.49
2023-10-26T02:26:13.454Z,969.50
2023-10-26T02:27:13.453Z,969.47
2023-10-26T02:28:13.386Z,969.51
2023-10-26T02:29:14.428Z,969.45
2023-10-26T02:30:13.543Z,969.45
2023-10-26T02:31:13.420Z,969.50
2023-10-26T02:32:13.402Z,969.44
2023-10-26T02:33:13.435Z,969.45
2023-10-26T02:34:13.367Z,969.47
2023-10-26T02:35:13.375Z,969.45
2023-10-26T02:36:13.459Z,969.48
2023-10-26T02:37:13.391Z,969.46
2023-10-26T02:38:13.383Z,969.46
2023-10-26T02:39:13.421Z,969.46
2023-10-26T02:40:13.356Z,969.44
2023-10-26T02:41:13.324Z,969.49
2023-10-26T02:42:13.411Z,969.38
2023-10-26T02:43:13.350Z,969.47
2023-10-26T02:44:13.331Z,969.53
2023-10-26T02:45:13.359Z,969.40
2023-10-26T02:46:13.340Z,969.52
2023-10-26T02:47:13.321Z,969.43
2023-10-26T02:48:13.360Z,969.53
2023-10-26T02:49:13.321Z,969.49
2023-10-26T02:50:13.377Z,969.52
2023-10-26T02:51:13.336Z,969.51
2023-10-26T02:52:13.317Z,969.52
2023-10-26T02:53:13.269Z,969.62
2023-10-26T02:54:13.316Z,969.58
2023-10-26T02:55:13.276Z,969.51
2023-10-26T02:56:13.256Z,969.56
2023-10-26T02:57:13.302Z,969.61
2023-10-26T02:58:13.291Z,969.54
2023-10-26T02:59:13.236Z,969.57
2023-10-26T03:00:13.390Z,969.57
2023-10-26T03:01:13.264Z,969.61
2023-10-26T03:02:13.269Z,969.65
2023-10-26T03:03:13.413Z,969.58
2023-10-26T03:04:13.369Z,969.63
2023-10-26T03:05:13.259Z,969.58
2023-10-26T03:06:13.264Z,969.52
2023-10-26T03:07:13.453Z,969.61
2023-10-26T03:08:13.201Z,969.67
2023-10-26T03:09:13.369Z,969.58
2023-10-26T03:10:13.284Z,969.56
2023-10-26T03:11:13.191Z,969.61
2023-10-26T03:12:13.212Z,969.62
2023-10-26T03:13:13.176Z,969.59
2023-10-26T03:14:13.194Z,969.60
2023-10-26T03:15:13.218Z,969.55
2023-10-26T03:16:13.166Z,969.66
2023-10-26T03:17:13.188Z,969.74
2023-10-26T03:18:13.238Z,969.67
2023-10-26T03:19:13.171Z,969.73
2023-10-26T03:20:13.231Z,969.73
2023-10-26T03:21:13.253Z,969.67
2023-10-26T03:22:13.153Z,969.63
2023-10-26T03:23:13.153Z,969.66
2023-10-26T03:24:13.181Z,969.64
2023-10-26T03:25:13.118Z,969.67
2023-10-26T03:26:13.125Z,969.70
2023-10-26T03:27:13.169Z,969.74
2023-10-26T03:28:13.096Z,969.68
2023-10-26T03:29:13.111Z,969.74
2023-10-26T03:30:13.177Z,969.81
2023-10-26T03:31:13.100Z,969.78
2023-10-26T03:32:13.106Z,969.80
2023-10-26T03:33:13.233Z,969.82
2023-10-26T03:34:13.094Z,969.83
2023-10-26T03:35:13.077Z,969.82
2023-10-26T03:36:13.169Z,969.84
2023-10-26T03:37:13.150Z,969.76
2023-10-26T03:38:13.096Z,969.77
2023-10-26T03:39:13.115Z,969.79
2023-10-26T03:40:13.093Z,969.82
2023-10-26T03:41:13.051Z,969.76
2023-10-26T03:42:13.128Z,969.81
2023-10-26T03:43:13.035Z,969.82
2023-10-26T03:44:13.093Z,969.78
2023-10-26T03:45:13.065Z,969.79
2023-10-26T03:46:13.047Z,969.82
2023-10-26T03:47:13.228Z,969.86
2023-10-26T03:48:13.134Z,969.79
2023-10-26T03:49:13.018Z,969.87
2023-10-26T03:50:13.061Z,969.70
2023-10-26T03:51:13.012Z,969.81
2023-10-26T03:52:13.009Z,969.76
2023-10-26T03:53:13.018Z,969.73
2023-10-26T03:54:13.030Z,969.75
2023-10-26T03:55:12.996Z,969.73
2023-10-26T03:56:12.992Z,969.80
2023-10-26T03:57:13.020Z,969.85
2023-10-26T03:58:12.996Z,969.74
2023-10-26T03:59:12.933Z,969.87
2023-10-26T04:00:13.031Z,969.72
2023-10-26T04:01:12.956Z,969.78
2023-10-26T04:02:13.039Z,969.86
2023-10-26T04:03:13.011Z,969.83
2023-10-26T04:04:12.930Z,969.82
2023-10-26T04:05:12.944Z,969.85
2023-10-26T04:06:12.976Z,969.82
2023-10-26T04:07:12.918Z,969.80
2023-10-26T04:08:12.938Z,969.76
2023-10-26T04:09:12.919Z,969.72
2023-10-26T04:10:12.911Z,969.74
2023-10-26T04:11:12.903Z,969.78
2023-10-26T04:12:12.890Z,969.76
2023-10-26T04:13:12.902Z,969.78
2023-10-26T04:14:12.887Z,969.83
2023-10-26T04:15:12.946Z,969.75
2023-10-26T04:16:13.920Z,969.81
2023-10-26T04:17:12.840Z,969.75
2023-10-26T04:18:12.944Z,969.76
2023-10-26T04:19:12.877Z,969.85
2023-10-26T04:20:12.889Z,969.78
2023-10-26T04:21:12.880Z,969.75
2023-10-26T04:22:12.859Z,969.79
2023-10-26T04:23:12.856Z,969.77
2023-10-26T04:24:12.875Z,969.81
2023-10-26T04:25:12.827Z,969.75
2023-10-26T04:26:12.832Z,969.82
2023-10-26T04:27:12.849Z,969.77
2023-10-26T04:28:12.862Z,969.81
2023-10-26T04:29:12.788Z,969.79
2023-10-26T04:30:12.820Z,969.83
2023-10-26T04:31:12.802Z,969.84
2023-10-26T04:32:12.797Z,969.82
2023-10-26T04:33:13.967Z,969.86
2023-10-26T04:34:12.803Z,969.89
2023-10-26T04:35:12.804Z,969.81
2023-10-26T04:36:12.794Z,969.84
2023-10-26T04:37:12.803Z,969.87
2023-10-26T04:38:12.780Z,969.85
2023-10-26T04:39:12.851Z,969.81
2023-10-26T04:40:12.764Z,969.84
2023-10-26T04:41:12.863Z,969.83
2023-10-26T04:42:12.771Z,969.89
2023-10-26T04:43:12.758Z,969.83
2023-10-26T04:44:12.740Z,969.84
2023-10-26T04:45:12.729Z,969.83
2023-10-26T04:46:12.770Z,969.92
2023-10-26T04:47:12.731Z,969.86
2023-10-26T04:48:12.772Z,969.91
2023-10-26T04:49:12.728Z,969.92
2023-10-26T04:50:12.695Z,969.92
2023-10-26T04:51:12.720Z,969.86
2023-10-26T04:52:12.696Z,969.88
2023-10-26T04:53:12.732Z,969.89
2023-10-26T04:54:12.723Z,969.88
2023-10-26T04:55:12.713Z,969.86
2023-10-26T04:56:12.675Z,969.95
2023-10-26T04:57:12.732Z,969.90
2023-10-26T04:58:12.769Z,969.94
2023-10-26T04:59:12.681Z,969.92
2023-10-26T05:00:12.663Z,969.95
2023-10-26T05:01:13.714Z,969.94
2023-10-26T05:02:46.920Z,969.92
2023-10-26T05:03:12.781Z,969.88
2023-10-26T05:04:12.638Z,969.85
2023-10-26T05:05:12.624Z,969.87
2023-10-26T05:06:12.662Z,969.93
2023-10-26T05:07:12.611Z,969.89
2023-10-26T05:08:12.631Z,969.88
2023-10-26T05:09:12.647Z,969.92
2023-10-26T05:10:12.616Z,969.91
2023-10-26T05:11:12.606Z,969.89
2023-10-26T05:12:12.600Z,969.89
2023-10-26T05:13:12.581Z,969.92
2023-10-26T05:14:12.592Z,969.87
2023-10-26T05:15:12.620Z,969.91
2023-10-26T05:16:12.682Z,969.88
2023-10-26T05:17:12.581Z,969.93
2023-10-26T05:18:12.660Z,970.01
2023-10-26T05:19:12.613Z,969.97
2023-10-26T05:20:12.572Z,969.98
2023-10-26T05:21:12.524Z,970.01
2023-10-26T05:22:12.545Z,969.95
2023-10-26T05:23:12.537Z,970.00
2023-10-26T05:24:12.526Z,970.05
2023-10-26T05:25:12.557Z,970.04
2023-10-26T05:26:12.527Z,970.08
2023-10-26T05:27:12.512Z,970.02
2023-10-26T05:28:12.534Z,970.04
2023-10-26T05:29:12.495Z,970.12
2023-10-26T05:30:12.496Z,970.06
2023-10-26T05:31:12.500Z,970.12
2023-10-26T05:32:12.505Z,970.06
2023-10-26T05:33:12.586Z,970.12
2023-10-26T05:34:12.501Z,970.10
2023-10-26T05:35:12.469Z,970.08
2023-10-26T05:36:12.517Z,970.13
2023-10-26T05:37:12.442Z,970.09
2023-10-26T05:38:12.447Z,970.10
2023-10-26T05:39:12.505Z,970.10
2023-10-26T05:40:12.438Z,970.11
2023-10-26T05:41:12.447Z,970.15
2023-10-26T05:42:12.438Z,970.13
2023-10-26T05:43:12.426Z,970.16
2023-10-26T05:44:12.430Z,970.07
2023-10-26T05:45:12.416Z,970.14
2023-10-26T05:46:12.460Z,970.10
2023-10-26T05:47:12.390Z,970.15
2023-10-26T05:48:12.478Z,970.13
2023-10-26T05:49:12.380Z,970.09
2023-10-26T05:50:12.355Z,970.11
2023-10-26T05:51:13.384Z,970.11
2023-10-26T05:52:12.366Z,970.05
2023-10-26T05:53:12.365Z,970.05
2023-10-26T05:54:12.458Z,970.06
2023-10-26T05:55:12.369Z,970.07
2023-10-26T05:56:12.377Z,970.00
2023-10-26T05:57:12.356Z,970.07
2023-10-26T05:58:12.338Z,970.13
2023-10-26T05:59:12.381Z,970.08
2023-10-26T06:00:12.334Z,970.08
2023-10-26T06:01:12.343Z,970.08
2023-10-26T06:02:12.325Z,970.08
2023-10-26T06:03:12.365Z,970.12
2023-10-26T06:04:12.335Z,970.11
2023-10-26T06:05:12.285Z,970.04
2023-10-26T06:06:12.306Z,970.08
2023-10-26T06:07:12.302Z,970.09
2023-10-26T06:08:12.289Z,970.18
2023-10-26T06:09:12.390Z,970.21
2023-10-26T06:10:12.279Z,970.09
2023-10-26T06:11:12.272Z,970.15
2023-10-26T06:12:12.288Z,970.15
2023-10-26T06:13:12.287Z,970.23
2023-10-26T06:14:12.295Z,970.17
2023-10-26T06:15:12.294Z,970.31
2023-10-26T06:16:12.262Z,970.29
2023-10-26T06:17:12.239Z,970.34
2023-10-26T06:18:12.271Z,970.29
2023-10-26T06:19:12.250Z,970.27
2023-10-26T06:20:13.564Z,970.32
2023-10-26T06:21:12.273Z,970.36
2023-10-26T06:22:12.193Z,970.41
2023-10-26T06:23:12.196Z,970.36
2023-10-26T06:24:12.258Z,970.37
2023-10-26T06:25:12.210Z,970.43
2023-10-26T06:26:12.211Z,970.32
2023-10-26T06:27:12.198Z,970.40
2023-10-26T06:28:12.166Z,970.34
2023-10-26T06:29:12.205Z,970.42
2023-10-26T06:30:12.224Z,970.38
2023-10-26T06:31:12.168Z,970.43
2023-10-26T06:32:12.160Z,970.46
2023-10-26T06:33:12.218Z,970.45
2023-10-26T06:34:12.172Z,970.44
2023-10-26T06:35:12.176Z,970.48
2023-10-26T06:36:12.175Z,970.51
2023-10-26T06:37:12.110Z,970.46
2023-10-26T06:38:12.120Z,970.46
2023-10-26T06:39:12.200Z,970.46
2023-10-26T06:40:12.143Z,970.48
2023-10-26T06:41:12.102Z,970.49
2023-10-26T06:42:12.134Z,970.51
2023-10-26T06:43:12.123Z,970.46
2023-10-26T06:44:12.158Z,970.48
2023-10-26T06:45:12.117Z,970.57
2023-10-26T06:46:12.104Z,970.49
2023-10-26T06:47:12.098Z,970.53
2023-10-26T06:48:13.727Z,970.51
2023-10-26T06:49:26.541Z,970.55
2023-10-26T06:50:14.089Z,970.59
2023-10-26T06:51:12.086Z,970.60
2023-10-26T06:52:12.816Z,970.56
2023-10-26T06:53:12.046Z,970.56
2023-10-26T06:54:12.092Z,970.64
2023-10-26T06:55:19.715Z,970.56
2023-10-26T06:56:14.071Z,970.57
2023-10-26T06:57:12.068Z,970.60
2023-10-26T06:58:12.016Z,970.63
2023-10-26T06:59:11.995Z,970.61
2023-10-26T07:00:12.168Z,970.56
2023-10-26T07:01:20.720Z,970.58
2023-10-26T07:02:13.096Z,970.60
2023-10-26T07:03:12.072Z,970.57
2023-10-26T07:04:12.056Z,970.57
2023-10-26T07:05:12.128Z,970.51
2023-10-26T07:06:12.030Z,970.56
2023-10-26T07:07:12.036Z,970.50
2023-10-26T07:08:12.087Z,970.55
2023-10-26T07:09:12.019Z,970.41
2023-10-26T07:10:12.076Z,970.48
2023-10-26T07:11:12.024Z,970.50
2023-10-26T07:12:12.008Z,970.53
2023-10-26T07:13:12.127Z,970.49
2023-10-26T07:14:11.995Z,970.55
2023-10-26T07:15:12.074Z,970.60
2023-10-26T07:16:12.010Z,970.59
2023-10-26T07:17:11.947Z,970.55
2023-10-26T07:18:12.212Z,970.57
2023-10-26T07:19:11.981Z,970.59
2023-10-26T07:20:11.943Z,970.60
2023-10-26T07:21:11.941Z,970.57
2023-10-26T07:22:11.949Z,970.63
2023-10-26T07:23:11.996Z,970.67
2023-10-26T07:24:12.024Z,970.65
2023-10-26T07:25:12.067Z,970.73
2023-10-26T07:26:12.457Z,970.74
2023-10-26T07:27:11.901Z,970.75
2023-10-26T07:28:11.891Z,970.73
2023-10-26T07:29:11.874Z,970.76
2023-10-26T07:30:12.037Z,970.61
2023-10-26T07:31:11.893Z,970.64
2023-10-26T07:32:11.979Z,970.62
2023-10-26T07:33:12.020Z,970.63
2023-10-26T07:34:11.870Z,970.63
2023-10-26T07:35:11.940Z,970.58
2023-10-26T07:36:12.859Z,970.63
2023-10-26T07:37:11.906Z,970.58
2023-10-26T07:38:35.232Z,970.62
2023-10-26T07:39:46.308Z,970.65
2023-10-26T07:40:28.387Z,970.57
2023-10-26T07:41:12.838Z,970.58
2023-10-26T07:42:11.874Z,970.59
2023-10-26T07:43:11.871Z,970.68
2023-10-26T07:44:11.806Z,970.67
2023-10-26T07:45:11.966Z,970.69
2023-10-26T07:46:11.873Z,970.67
2023-10-26T07:47:11.836Z,970.77
2023-10-26T07:48:11.897Z,970.69
2023-10-26T07:49:11.772Z,970.70
2023-10-26T07:50:11.791Z,970.71
2023-10-26T07:51:11.931Z,970.71
2023-10-26T07:52:11.803Z,970.70
2023-10-26T07:53:11.783Z,970.73
2023-10-26T07:54:11.789Z,970.68
2023-10-26T07:55:11.874Z,970.67
2023-10-26T07:56:11.825Z,970.64
2023-10-26T07:57:11.748Z,970.68
2023-10-26T07:58:11.741Z,970.65
2023-10-26T07:59:11.753Z,970.65
2023-10-26T08:00:11.766Z,970.60
2023-10-26T08:01:11.829Z,970.60
2023-10-26T08:02:11.826Z,970.58
2023-10-26T08:03:11.771Z,970.61
2023-10-26T08:04:11.732Z,970.62
2023-10-26T08:05:12.335Z,970.60
2023-10-26T08:06:11.713Z,970.63
2023-10-26T08:07:11.694Z,970.62
2023-10-26T08:08:11.787Z,970.60
2023-10-26T08:09:11.779Z,970.62
2023-10-26T08:10:11.710Z,970.60
2023-10-26T08:11:11.729Z,970.64
2023-10-26T08:12:11.895Z,970.60
2023-10-26T08:13:11.770Z,970.67
2023-10-26T08:14:33.986Z,970.61
2023-10-26T08:16:29.953Z,970.65
2023-10-26T08:16:42.011Z,970.63
2023-10-26T08:17:12.998Z,970.66
2023-10-26T08:18:12.945Z,970.65
2023-10-26T08:19:11.845Z,970.61
2023-10-26T08:20:13.417Z,970.62
2023-10-26T08:21:11.975Z,970.62
2023-10-26T08:22:11.688Z,970.60
2023-10-26T08:23:11.709Z,970.59
2023-10-26T08:24:11.902Z,970.61
2023-10-26T08:25:11.718Z,970.59
2023-10-26T08:26:11.694Z,970.65
2023-10-26T08:27:12.244Z,970.55
2023-10-26T08:28:11.724Z,970.62
2023-10-26T08:29:18.489Z,970.70
2023-10-26T08:30:12.658Z,970.58
2023-10-26T08:31:12.764Z,970.57
2023-10-26T08:32:11.817Z,970.73
2023-10-26T08:33:13.156Z,970.67
2023-10-26T08:34:11.652Z,970.61
2023-10-26T08:35:11.900Z,970.62
2023-10-26T08:36:11.552Z,970.66
2023-10-26T08:37:13.761Z,970.61
2023-10-26T08:38:12.535Z,970.66
2023-10-26T08:39:12.565Z,970.65
2023-10-26T08:40:11.553Z,970.66
2023-10-26T08:41:11.509Z,970.67
2023-10-26T08:42:13.568Z,970.74
2023-10-26T08:43:11.527Z,970.66
2023-10-26T08:44:12.426Z,970.72
2023-10-26T08:45:11.507Z,970.66
2023-10-26T08:46:11.535Z,970.73
2023-10-26T08:47:11.685Z,970.76
2023-10-26T08:48:11.562Z,970.74
2023-10-26T08:49:11.460Z,970.67
2023-10-26T08:50:16.667Z,970.68
2023-10-26T08:51:12.492Z,970.62
2023-10-26T08:52:11.555Z,970.65
2023-10-26T08:53:11.489Z,970.69
2023-10-26T08:54:11.479Z,970.61
2023-10-26T08:55:11.537Z,970.63
2023-10-26T08:56:11.465Z,970.65
2023-10-26T08:57:11.508Z,970.66
2023-10-26T08:58:11.576Z,970.64
2023-10-26T08:59:11.478Z,970.63
2023-10-26T09:00:11.459Z,970.62
2023-10-26T09:01:11.440Z,970.59
2023-10-26T09:02:11.473Z,970.66
2023-10-26T09:03:11.646Z,970.66
2023-10-26T09:04:11.563Z,970.62
2023-10-26T09:05:11.424Z,970.67
2023-10-26T09:06:11.378Z,970.71
2023-10-26T09:07:11.412Z,970.71
2023-10-26T09:08:11.442Z,970.68
2023-10-26T09:09:11.364Z,970.77
2023-10-26T09:10:11.395Z,970.69
2023-10-26T09:11:11.417Z,970.72
2023-10-26T09:12:11.362Z,970.73
2023-10-26T09:13:11.373Z,970.67
2023-10-26T09:14:11.360Z,970.71
2023-10-26T09:15:11.347Z,970.71
2023-10-26T09:16:11.388Z,970.74
2023-10-26T09:17:11.448Z,970.70
2023-10-26T09:18:11.473Z,970.69
2023-10-26T09:19:11.861Z,970.72
2023-10-26T09:20:11.327Z,970.78
2023-10-26T09:21:11.306Z,970.82
2023-10-26T09:22:11.324Z,970.83
2023-10-26T09:23:11.307Z,970.93
2023-10-26T09:24:11.354Z,970.85
2023-10-26T09:25:11.303Z,970.88
2023-10-26T09:26:11.500Z,970.82
2023-10-26T09:27:11.274Z,970.81
2023-10-26T09:28:11.300Z,970.88
2023-10-26T09:29:11.322Z,970.78
2023-10-26T09:30:11.285Z,970.86
2023-10-26T09:31:11.291Z,970.80
2023-10-26T09:32:11.365Z,970.67
2023-10-26T09:33:11.293Z,970.82
2023-10-26T09:34:11.249Z,970.88
2023-10-26T09:35:11.326Z,970.85
2023-10-26T09:36:11.284Z,970.95
2023-10-26T09:37:11.254Z,970.93
2023-10-26T09:38:11.248Z,970.94
2023-10-26T09:39:11.291Z,970.90
2023-10-26T09:40:16.308Z,970.90
2023-10-26T09:41:12.227Z,970.89
2023-10-26T09:42:12.360Z,970.89
2023-10-26T09:43:12.244Z,970.94
2023-10-26T09:44:11.223Z,970.87
2023-10-26T09:45:11.200Z,970.93
2023-10-26T09:46:11.345Z,970.95
2023-10-26T09:47:11.382Z,970.92
2023-10-26T09:48:11.277Z,970.88
2023-10-26T09:49:11.180Z,970.89
2023-10-26T09:50:11.202Z,970.89
2023-10-26T09:51:11.217Z,970.87
2023-10-26T09:52:11.146Z,970.89
2023-10-26T09:54:12.255Z,970.93
2023-10-26T09:55:11.180Z,971.00
2023-10-26T09:56:11.231Z,971.14
2023-10-26T09:57:11.155Z,971.03
2023-10-26T09:58:11.170Z,971.06
2023-10-26T09:59:11.169Z,971.26
2023-10-26T10:00:11.152Z,971.26
2023-10-26T10:01:11.134Z,971.25
2023-10-26T10:02:11.126Z,971.27
2023-10-26T10:03:11.212Z,971.25
2023-10-26T10:04:11.119Z,971.23
2023-10-26T10:05:11.116Z,971.25
2023-10-26T10:06:11.166Z,971.20
2023-10-26T10:07:11.119Z,971.17
2023-10-26T10:08:11.363Z,971.16
2023-10-26T10:09:11.077Z,971.11
2023-10-26T10:10:11.095Z,971.09
2023-10-26T10:11:11.118Z,971.12
2023-10-26T10:12:11.099Z,971.16
2023-10-26T10:13:11.084Z,971.14
2023-10-26T10:14:11.100Z,971.17
2023-10-26T10:15:36.435Z,971.27
2023-10-26T10:16:11.218Z,971.30
2023-10-26T10:17:11.081Z,971.36
2023-10-26T10:18:11.177Z,971.45
2023-10-26T10:19:11.049Z,971.46
2023-10-26T10:20:11.056Z,971.46
2023-10-26T10:21:11.006Z,971.49
2023-10-26T10:22:11.020Z,971.50
2023-10-26T10:23:11.055Z,971.38
2023-10-26T10:24:11.026Z,971.33
2023-10-26T10:25:11.071Z,971.24
2023-10-26T10:26:24.188Z,971.32
2023-10-26T10:27:12.043Z,971.27
2023-10-26T10:28:11.000Z,971.27
2023-10-26T10:29:11.010Z,971.29
2023-10-26T10:30:10.989Z,971.29
2023-10-26T10:31:11.016Z,971.39
2023-10-26T10:32:10.990Z,971.37
2023-10-26T10:33:10.980Z,971.35
2023-10-26T10:34:11.013Z,971.30
2023-10-26T10:35:10.947Z,971.34
2023-10-26T10:36:10.965Z,971.36
2023-10-26T10:37:10.936Z,971.49
2023-10-26T10:38:10.988Z,971.48
2023-10-26T10:39:10.954Z,971.51
2023-10-26T10:40:10.944Z,971.53
2023-10-26T10:41:10.928Z,971.43
2023-10-26T10:42:10.950Z,971.59
2023-10-26T10:43:10.879Z,971.44
2023-10-26T10:44:10.908Z,971.44
2023-10-26T10:45:10.936Z,971.38
2023-10-26T10:46:10.956Z,971.42
2023-10-26T10:47:10.891Z,971.40
2023-10-26T10:48:10.859Z,971.37
2023-10-26T10:49:10.837Z,971.35
2023-10-26T10:50:10.860Z,971.34
2023-10-26T10:51:10.834Z,971.32
2023-10-26T10:52:10.817Z,971.27
2023-10-26T10:53:10.806Z,971.23
2023-10-26T10:54:26.302Z,971.24
2023-10-26T10:55:12.898Z,971.30
2023-10-26T10:56:10.830Z,971.23
2023-10-26T10:57:10.812Z,971.24
2023-10-26T10:58:10.896Z,971.18
2023-10-26T10:59:10.806Z,971.25
2023-10-26T11:00:10.811Z,971.27
2023-10-26T11:01:10.768Z,971.21
2023-10-26T11:02:11.820Z,971.31
2023-10-26T11:03:10.838Z,971.25
2023-10-26T11:04:11.878Z,971.19
2023-10-26T11:05:18.028Z,971.24
2023-10-26T11:06:11.793Z,971.24
2023-10-26T11:07:10.803Z,971.26
2023-10-26T11:08:10.831Z,971.29
2023-10-26T11:09:11.118Z,971.25
2023-10-26T11:10:10.786Z,971.20
2023-10-26T11:11:10.805Z,971.15
2023-10-26T11:12:10.851Z,971.19
2023-10-26T11:13:10.762Z,971.11
2023-10-26T11:14:10.784Z,971.12
2023-10-26T11:15:10.772Z,971.09
2023-10-26T11:16:10.812Z,971.14
2023-10-26T11:17:10.766Z,971.16
2023-10-26T11:18:10.768Z,971.15
2023-10-26T11:19:10.761Z,971.17
2023-10-26T11:20:10.727Z,971.20
2023-10-26T11:21:10.802Z,971.16
2023-10-26T11:22:10.725Z,971.25
2023-10-26T11:23:10.765Z,971.20
2023-10-26T11:24:10.761Z,971.16
2023-10-26T11:25:10.742Z,971.20
2023-10-26T11:26:10.729Z,971.16
2023-10-26T11:27:10.703Z,971.16
2023-10-26T11:28:10.797Z,971.15
2023-10-26T11:29:10.748Z,971.13
2023-10-26T11:30:10.687Z,971.17
2023-10-26T11:31:10.823Z,971.17
2023-10-26T11:32:10.730Z,971.20
2023-10-26T11:33:10.665Z,971.22
2023-10-26T11:34:10.738Z,971.19
2023-10-26T11:35:10.701Z,971.10
2023-10-26T11:36:10.661Z,971.17
2023-10-26T11:37:10.762Z,971.19
2023-10-26T11:38:10.678Z,971.16
2023-10-26T11:39:10.713Z,971.17
2023-10-26T11:40:10.658Z,971.11
2023-10-26T11:41:10.666Z,971.12
2023-10-26T11:42:10.649Z,971.06
2023-10-26T11:43:11.549Z,971.08
2023-10-26T11:44:10.644Z,971.01
2023-10-26T11:45:10.650Z,971.06
2023-10-26T11:46:10.597Z,971.02
2023-10-26T11:47:10.594Z,971.02
2023-10-26T11:48:10.582Z,970.98
2023-10-26T11:49:10.581Z,971.05
2023-10-26T11:50:10.577Z,971.03
2023-10-26T11:51:10.581Z,970.97
2023-10-26T11:52:10.587Z,970.98
2023-10-26T11:53:10.641Z,971.01
2023-10-26T11:54:11.439Z,971.01
2023-10-26T11:55:10.570Z,971.12
2023-10-26T11:56:10.558Z,971.05
2023-10-26T11:57:10.555Z,971.11
2023-10-26T11:58:10.531Z,971.13
2023-10-26T11:59:10.543Z,971.17
2023-10-26T12:00:10.558Z,971.10
2023-10-26T12:01:10.513Z,971.12
2023-10-26T12:02:11.078Z,971.07
2023-10-26T12:03:10.584Z,971.16
2023-10-26T12:04:10.520Z,971.11
2023-10-26T12:05:10.498Z,971.10
2023-10-26T12:06:10.502Z,971.17
2023-10-26T12:07:10.484Z,971.16
2023-10-26T12:08:10.481Z,971.16
2023-10-26T12:09:10.555Z,971.11
2023-10-26T12:10:10.524Z,971.06
2023-10-26T12:11:10.483Z,971.09
2023-10-26T12:12:11.088Z,971.02
2023-10-26T12:13:11.528Z,971.08
2023-10-26T12:14:10.544Z,971.05
2023-10-26T12:15:10.575Z,971.02
2023-10-26T12:16:10.510Z,971.04
2023-10-26T12:17:10.471Z,971.04
2023-10-26T12:18:10.477Z,971.09
2023-10-26T12:19:10.452Z,971.21
2023-10-26T12:20:10.510Z,971.21
2023-10-26T12:21:10.477Z,971.21
2023-10-26T12:22:10.450Z,971.13
2023-10-26T12:23:10.448Z,971.22
2023-10-26T12:24:10.573Z,971.15
2023-10-26T12:25:10.533Z,971.14
2023-10-26T12:26:10.442Z,971.12
2023-10-26T12:27:10.438Z,971.14
2023-10-26T12:28:10.438Z,971.13
2023-10-26T12:29:11.385Z,971.14